Rosholt, WI (54473)

2:20 AM CDT on June 20, 2018 (GMT -0500)
Omernik Institute of Technology | | Change Station
Active Advisory: Flood Warning, Flood Advisory Active Notice: Flood Advisory

Elev 1168 ft 44.69 °N, 89.27 °W | Updated 9 seconds ago

Overcast
Overcast
59.9 °F
Feels Like 59.9 °F
N
0
Wind Variable Wind from West
Gusts 0.0 mph

Today
High -- | Low -- °F
--% Chance of Precip.
Yesterday
High -- | Low -- °F
Precip. -- in
Pressure 29.98 in
Visibility 10.0 miles
Clouds Mostly Cloudy 2300 ft
Overcast 3700 ft
Dew Point 60 °F
Humidity 99%
Rainfall 0.00 in
Snow Depth Not available.
5:11 AM 8:45 PM
Waxing Crescent, 49% visible
METAR KSTE 200655Z AUTO 00000KT 10SM BKN023 OVC037 15/15 A2998 RMK AO2 T01470147
Pressure 29.98 in
Visibility 10.0 miles
Clouds Mostly Cloudy 2300 ft
Overcast 3700 ft
Dew Point 60 °F
Humidity 99%
Rainfall 0.00 in
Snow Depth Not available.
5:11 AM 8:45 PM
Waxing Crescent, 49% visible
METAR KSTE 200655Z AUTO 00000KT 10SM BKN023 OVC037 15/15 A2998 RMK AO2 T01470147

Get Your Daily Forecast Email!

Thanks for signing up!

Be on the lookout for a verification email in your inbox.

You'll start receiving severe weather alerts in your inbox..

×

10-Day Weather Forecast

Almanac

Astronomy

Jun. 20, 2018 Rise Set
Actual Time
Civil Twilight
Nautical Twilight
Astronomical Twilight
Moon
Length of Visible Light
Length of Day
Tomorrow will be .
, % of the Moon is Illuminated

Today's Extremes

State Highs State Lows

Community

WunderPhotos

Category 6

Welcome to Category 6. This is the collective home for Weather Underground's featured writeups by Dr. Jeff Masters (right), Bob Henson (left), Chris Burt, and other regular contributors.

Nearby

Air Quality

  Air Quality AQ Index Pollutant
Not available.

Snow Depth

Station Depth Elevation

Earthquake Activity

City Distance Mag. Time & Date
Minimum magnitude displayed is 2.5.

Coastal Water Temperatures

Place Temperature

Stations

Nearby Weather Stations

Station Location Temp. Windchill Dew Point Humidity Wind Precip. Elev Updated Type
                   

Watches & Warnings

Flood Warning
Issued: 8:51 PM CDT Jun. 19, 2018 – National Weather Service

The Flood Warning continues for
the Wisconsin river below Stevens Point.
* At 7:10 PM Tuesday the stage was 1076 feet.
* Flood stage is 1076 feet.
* Impacts at 1076 feet. There is widespread flooding of wooded
lowland.


Lat... Lon 4458 8961 4450 8956 4448 8964 4458 8967





Flood Advisory
Issued: 5:37 AM CDT Jun. 19, 2018 – National Weather Service

The National Weather Service in Green Bay has issued a
* flood advisory for
the Wisconsin river below Stevens Point
* at 4:10 am Tuesday the stage was 1076 feet.
* Flood stage is 1076 feet.
* Impacts at 1076 feet. There is widespread flooding of wooded
lowland.


Lat... Lon 4458 8961 4450 8956 4448 8964 4458 8967



Mpc